sensor_id;sensor_type;location;lat;lon;timestamp;P1;durP1;ratioP1;P2;durP2;ratioP2
69906;SDS011;57190;47.918;8.112;2024-03-23T00:54:09;2.20;;;2.00;;
69906;SDS011;57190;47.918;8.112;2024-03-23T00:56:34;2.38;;;2.05;;
69906;SDS011;57190;47.918;8.112;2024-03-23T00:59:00;2.42;;;2.00;;
69906;SDS011;57190;47.918;8.112;2024-03-23T01:01:25;2.00;;;1.90;;
69906;SDS011;57190;47.918;8.112;2024-03-23T01:03:51;2.38;;;1.60;;
69906;SDS011;57190;47.918;8.112;2024-03-23T01:06:17;3.72;;;2.90;;
69906;SDS011;57190;47.918;8.112;2024-03-23T01:08:42;1.88;;;1.73;;
69906;SDS011;57190;47.918;8.112;2024-03-23T01:11:08;1.90;;;1.80;;
69906;SDS011;57190;47.918;8.112;2024-03-23T01:13:34;1.98;;;1.75;;
69906;SDS011;57190;47.918;8.112;2024-03-23T01:16:00;2.85;;;2.00;;
69906;SDS011;57190;47.918;8.112;2024-03-23T01:18:26;2.30;;;2.20;;
69906;SDS011;57190;47.918;8.112;2024-03-23T01:20:52;3.35;;;2.30;;
69906;SDS011;57190;47.918;8.112;2024-03-23T01:23:17;2.60;;;2.40;;
69906;SDS011;57190;47.918;8.112;2024-03-23T01:25:43;3.08;;;2.78;;
69906;SDS011;57190;47.918;8.112;2024-03-23T01:28:08;3.50;;;3.00;;
69906;SDS011;57190;47.918;8.112;2024-03-23T01:30:34;3.65;;;2.65;;
69906;SDS011;57190;47.918;8.112;2024-03-23T01:33:00;2.40;;;2.20;;
69906;SDS011;57190;47.918;8.112;2024-03-23T01:35:26;3.13;;;2.20;;
69906;SDS011;57190;47.918;8.112;2024-03-23T01:37:51;2.97;;;2.20;;
69906;SDS011;57190;47.918;8.112;2024-03-23T01:40:17;2.45;;;2.28;;
69906;SDS011;57190;47.918;8.112;2024-03-23T01:42:42;3.42;;;3.20;;
69906;SDS011;57190;47.918;8.112;2024-03-23T01:45:08;3.95;;;3.17;;
69906;SDS011;57190;47.918;8.112;2024-03-23T01:47:37;3.22;;;3.03;;
69906;SDS011;57190;47.918;8.112;2024-03-23T01:50:03;3.53;;;2.55;;
69906;SDS011;57190;47.918;8.112;2024-03-23T01:52:29;2.95;;;2.70;;
69906;SDS011;57190;47.918;8.112;2024-03-23T01:54:55;2.72;;;2.53;;
69906;SDS011;57190;47.918;8.112;2024-03-23T01:57:21;3.28;;;2.75;;
69906;SDS011;57190;47.918;8.112;2024-03-23T01:59:47;2.40;;;2.20;;
69906;SDS011;57190;47.918;8.112;2024-03-23T02:02:13;3.53;;;2.65;;
69906;SDS011;57190;47.918;8.112;2024-03-23T02:04:39;3.63;;;2.40;;
69906;SDS011;57190;47.918;8.112;2024-03-23T02:07:06;2.63;;;2.42;;
69906;SDS011;57190;47.918;8.112;2024-03-23T02:09:32;3.17;;;2.30;;
69906;SDS011;57190;47.918;8.112;2024-03-23T02:11:58;3.08;;;2.53;;
69906;SDS011;57190;47.918;8.112;2024-03-23T02:14:23;2.70;;;2.50;;
69906;SDS011;57190;47.918;8.112;2024-03-23T02:16:49;2.40;;;2.20;;
69906;SDS011;57190;47.918;8.112;2024-03-23T02:19:14;4.85;;;2.60;;
69906;SDS011;57190;47.918;8.112;2024-03-23T02:21:40;2.33;;;2.03;;
69906;SDS011;57190;47.918;8.112;2024-03-23T02:24:05;3.17;;;2.58;;
69906;SDS011;57190;47.918;8.112;2024-03-23T02:26:31;2.50;;;2.30;;
69906;SDS011;57190;47.918;8.112;2024-03-23T02:28:57;2.80;;;2.50;;
69906;SDS011;57190;47.918;8.112;2024-03-23T02:31:22;2.53;;;2.15;;
69906;SDS011;57190;47.918;8.112;2024-03-23T02:33:48;2.70;;;2.50;;
69906;SDS011;57190;47.918;8.112;2024-03-23T02:36:13;2.25;;;2.05;;
69906;SDS011;57190;47.918;8.112;2024-03-23T02:38:39;2.22;;;2.13;;
69906;SDS011;57190;47.918;8.112;2024-03-23T02:41:04;2.20;;;2.00;;
69906;SDS011;57190;47.918;8.112;2024-03-23T02:43:30;2.55;;;2.22;;
69906;SDS011;57190;47.918;8.112;2024-03-23T02:45:56;3.13;;;2.17;;
69906;SDS011;57190;47.918;8.112;2024-03-23T02:48:22;2.20;;;1.90;;
69906;SDS011;57190;47.918;8.112;2024-03-23T02:50:48;2.60;;;2.38;;
69906;SDS011;57190;47.918;8.112;2024-03-23T02:53:13;2.42;;;2.22;;
69906;SDS011;57190;47.918;8.112;2024-03-23T02:55:38;2.47;;;2.28;;
69906;SDS011;57190;47.918;8.112;2024-03-23T02:58:04;2.10;;;1.90;;
69906;SDS011;57190;47.918;8.112;2024-03-23T03:00:30;2.45;;;2.08;;
69906;SDS011;57190;47.918;8.112;2024-03-23T03:02:55;4.63;;;2.03;;
69906;SDS011;57190;47.918;8.112;2024-03-23T03:05:21;4.20;;;2.30;;
69906;SDS011;57190;47.918;8.112;2024-03-23T03:07:46;4.65;;;2.33;;
69906;SDS011;57190;47.918;8.112;2024-03-23T03:10:12;3.00;;;1.98;;
69906;SDS011;57190;47.918;8.112;2024-03-23T03:12:37;2.35;;;2.13;;
69906;SDS011;57190;47.918;8.112;2024-03-23T03:15:03;3.08;;;2.15;;
69906;SDS011;57190;47.918;8.112;2024-03-23T03:17:30;2.63;;;2.42;;
69906;SDS011;57190;47.918;8.112;2024-03-23T03:19:55;3.15;;;2.17;;
69906;SDS011;57190;47.918;8.112;2024-03-23T03:22:21;2.20;;;2.10;;
69906;SDS011;57190;47.918;8.112;2024-03-23T03:24:47;3.05;;;2.00;;
69906;SDS011;57190;47.918;8.112;2024-03-23T03:27:13;2.47;;;2.28;;
69906;SDS011;57190;47.918;8.112;2024-03-23T03:29:38;2.47;;;2.30;;
69906;SDS011;57190;47.918;8.112;2024-03-23T03:32:04;2.53;;;2.00;;
69906;SDS011;57190;47.918;8.112;2024-03-23T03:34:30;3.53;;;2.05;;
69906;SDS011;57190;47.918;8.112;2024-03-23T03:36:56;2.60;;;2.35;;
69906;SDS011;57190;47.918;8.112;2024-03-23T03:39:22;2.50;;;2.30;;
69906;SDS011;57190;47.918;8.112;2024-03-23T03:41:48;3.75;;;2.58;;
69906;SDS011;57190;47.918;8.112;2024-03-23T03:44:14;2.58;;;2.10;;
69906;SDS011;57190;47.918;8.112;2024-03-23T03:46:39;2.65;;;2.20;;
69906;SDS011;57190;47.918;8.112;2024-03-23T03:49:04;2.10;;;2.00;;
69906;SDS011;57190;47.918;8.112;2024-03-23T03:51:30;3.80;;;2.67;;
69906;SDS011;57190;47.918;8.112;2024-03-23T03:53:56;3.08;;;2.20;;
69906;SDS011;57190;47.918;8.112;2024-03-23T03:56:21;2.80;;;2.13;;
69906;SDS011;57190;47.918;8.112;2024-03-23T03:58:47;2.47;;;1.95;;
69906;SDS011;57190;47.918;8.112;2024-03-23T04:01:13;3.80;;;2.33;;
69906;SDS011;57190;47.918;8.112;2024-03-23T04:03:38;2.85;;;2.50;;
69906;SDS011;57190;47.918;8.112;2024-03-23T04:06:08;2.72;;;2.35;;
69906;SDS011;57190;47.918;8.112;2024-03-23T04:08:37;2.70;;;2.50;;
69906;SDS011;57190;47.918;8.112;2024-03-23T04:11:02;2.85;;;2.58;;
69906;SDS011;57190;47.918;8.112;2024-03-23T04:13:28;2.50;;;2.30;;
69906;SDS011;57190;47.918;8.112;2024-03-23T04:15:54;2.90;;;2.70;;
69906;SDS011;57190;47.918;8.112;2024-03-23T04:18:20;3.53;;;2.65;;
69906;SDS011;57190;47.918;8.112;2024-03-23T04:20:46;2.92;;;2.53;;
69906;SDS011;57190;47.918;8.112;2024-03-23T04:23:12;3.20;;;2.90;;
69906;SDS011;57190;47.918;8.112;2024-03-23T04:25:38;3.58;;;3.05;;
69906;SDS011;57190;47.918;8.112;2024-03-23T04:28:03;2.80;;;2.53;;
69906;SDS011;57190;47.918;8.112;2024-03-23T04:30:29;3.42;;;2.55;;
69906;SDS011;57190;47.918;8.112;2024-03-23T04:32:55;6.03;;;2.90;;
69906;SDS011;57190;47.918;8.112;2024-03-23T04:35:22;3.40;;;2.50;;
69906;SDS011;57190;47.918;8.112;2024-03-23T04:37:50;3.83;;;3.13;;
69906;SDS011;57190;47.918;8.112;2024-03-23T04:40:17;4.13;;;3.72;;
69906;SDS011;57190;47.918;8.112;2024-03-23T04:42:43;3.00;;;2.80;;
69906;SDS011;57190;47.918;8.112;2024-03-23T04:45:08;3.00;;;2.80;;
69906;SDS011;57190;47.918;8.112;2024-03-23T04:47:36;4.55;;;2.95;;
69906;SDS011;57190;47.918;8.112;2024-03-23T04:50:03;3.20;;;2.90;;
69906;SDS011;57190;47.918;8.112;2024-03-23T04:52:29;4.55;;;3.40;;
69906;SDS011;57190;47.918;8.112;2024-03-23T04:54:55;3.30;;;3.10;;
69906;SDS011;57190;47.918;8.112;2024-03-23T04:57:20;3.95;;;3.63;;
69906;SDS011;57190;47.918;8.112;2024-03-23T04:59:46;4.43;;;3.42;;
69906;SDS011;57190;47.918;8.112;2024-03-23T05:02:12;3.38;;;3.05;;
69906;SDS011;57190;47.918;8.112;2024-03-23T05:04:38;3.85;;;3.55;;
69906;SDS011;57190;47.918;8.112;2024-03-23T05:07:03;3.65;;;3.35;;
69906;SDS011;57190;47.918;8.112;2024-03-23T05:09:29;3.92;;;3.63;;
69906;SDS011;57190;47.918;8.112;2024-03-23T05:12:04;4.35;;;3.83;;
69906;SDS011;57190;47.918;8.112;2024-03-23T05:14:30;4.10;;;3.80;;
69906;SDS011;57190;47.918;8.112;2024-03-23T05:16:55;4.57;;;4.20;;
69906;SDS011;57190;47.918;8.112;2024-03-23T05:19:21;4.40;;;4.00;;
69906;SDS011;57190;47.918;8.112;2024-03-23T05:21:47;4.80;;;4.32;;
69906;SDS011;57190;47.918;8.112;2024-03-23T05:24:12;4.75;;;4.35;;
69906;SDS011;57190;47.918;8.112;2024-03-23T05:26:38;4.57;;;4.18;;
69906;SDS011;57190;47.918;8.112;2024-03-23T05:29:04;4.22;;;3.92;;
69906;SDS011;57190;47.918;8.112;2024-03-23T05:31:29;4.13;;;3.80;;
69906;SDS011;57190;47.918;8.112;2024-03-23T05:33:56;4.57;;;4.18;;
69906;SDS011;57190;47.918;8.112;2024-03-23T05:36:22;4.20;;;3.80;;
69906;SDS011;57190;47.918;8.112;2024-03-23T05:38:48;4.53;;;4.18;;
69906;SDS011;57190;47.918;8.112;2024-03-23T05:41:14;4.30;;;3.90;;
69906;SDS011;57190;47.918;8.112;2024-03-23T05:43:39;4.38;;;3.97;;
69906;SDS011;57190;47.918;8.112;2024-03-23T05:46:05;4.15;;;3.78;;
69906;SDS011;57190;47.918;8.112;2024-03-23T05:48:31;4.32;;;3.78;;
69906;SDS011;57190;47.918;8.112;2024-03-23T05:50:56;4.05;;;3.75;;
69906;SDS011;57190;47.918;8.112;2024-03-23T05:53:22;3.35;;;2.80;;
69906;SDS011;57190;47.918;8.112;2024-03-23T05:55:49;4.35;;;3.13;;
69906;SDS011;57190;47.918;8.112;2024-03-23T05:58:25;3.75;;;3.38;;
69906;SDS011;57190;47.918;8.112;2024-03-23T06:00:56;3.88;;;3.58;;
69906;SDS011;57190;47.918;8.112;2024-03-23T06:03:23;3.75;;;3.45;;
69906;SDS011;57190;47.918;8.112;2024-03-23T06:05:48;3.63;;;3.33;;
69906;SDS011;57190;47.918;8.112;2024-03-23T06:08:14;3.75;;;3.05;;
69906;SDS011;57190;47.918;8.112;2024-03-23T06:10:40;3.40;;;3.00;;
69906;SDS011;57190;47.918;8.112;2024-03-23T06:13:05;3.80;;;3.50;;
69906;SDS011;57190;47.918;8.112;2024-03-23T06:15:31;3.50;;;3.20;;
69906;SDS011;57190;47.918;8.112;2024-03-23T06:17:56;3.50;;;3.20;;
69906;SDS011;57190;47.918;8.112;2024-03-23T06:20:22;3.60;;;3.40;;
69906;SDS011;57190;47.918;8.112;2024-03-23T06:22:47;3.83;;;3.53;;
69906;SDS011;57190;47.918;8.112;2024-03-23T06:25:13;4.03;;;3.72;;
69906;SDS011;57190;47.918;8.112;2024-03-23T06:27:38;4.28;;;3.97;;
69906;SDS011;57190;47.918;8.112;2024-03-23T06:30:04;4.27;;;3.97;;
69906;SDS011;57190;47.918;8.112;2024-03-23T06:32:31;4.30;;;4.00;;
69906;SDS011;57190;47.918;8.112;2024-03-23T06:34:57;4.57;;;4.27;;
69906;SDS011;57190;47.918;8.112;2024-03-23T06:37:22;4.55;;;4.15;;
69906;SDS011;57190;47.918;8.112;2024-03-23T06:39:48;5.45;;;5.05;;
69906;SDS011;57190;47.918;8.112;2024-03-23T06:42:13;5.37;;;4.97;;
69906;SDS011;57190;47.918;8.112;2024-03-23T06:44:39;4.80;;;4.40;;
69906;SDS011;57190;47.918;8.112;2024-03-23T06:47:05;4.50;;;4.10;;
69906;SDS011;57190;47.918;8.112;2024-03-23T06:49:30;4.10;;;3.80;;
69906;SDS011;57190;47.918;8.112;2024-03-23T06:51:56;3.80;;;3.50;;
69906;SDS011;57190;47.918;8.112;2024-03-23T06:54:21;3.33;;;3.03;;
69906;SDS011;57190;47.918;8.112;2024-03-23T06:56:47;2.50;;;2.30;;
69906;SDS011;57190;47.918;8.112;2024-03-23T06:59:12;2.07;;;1.87;;
69906;SDS011;57190;47.918;8.112;2024-03-23T07:01:38;1.53;;;1.43;;
69906;SDS011;57190;47.918;8.112;2024-03-23T07:04:04;1.60;;;1.50;;
69906;SDS011;57190;47.918;8.112;2024-03-23T07:06:30;1.50;;;1.40;;
69906;SDS011;57190;47.918;8.112;2024-03-23T07:08:55;1.23;;;1.23;;
69906;SDS011;57190;47.918;8.112;2024-03-23T07:11:21;1.17;;;1.07;;
69906;SDS011;57190;47.918;8.112;2024-03-23T07:13:50;0.70;;;0.70;;
69906;SDS011;57190;47.918;8.112;2024-03-23T07:16:17;1.07;;;1.07;;
69906;SDS011;57190;47.918;8.112;2024-03-23T07:18:43;0.70;;;0.70;;
69906;SDS011;57190;47.918;8.112;2024-03-23T07:21:09;0.70;;;0.70;;
69906;SDS011;57190;47.918;8.112;2024-03-23T07:23:34;0.60;;;0.60;;
69906;SDS011;57190;47.918;8.112;2024-03-23T07:26:00;0.60;;;0.60;;
69906;SDS011;57190;47.918;8.112;2024-03-23T07:28:27;0.60;;;0.60;;
69906;SDS011;57190;47.918;8.112;2024-03-23T07:33:31;0.60;;;0.60;;
69906;SDS011;57190;47.918;8.112;2024-03-23T07:35:57;0.80;;;0.57;;
69906;SDS011;57190;47.918;8.112;2024-03-23T07:38:25;0.60;;;0.60;;
69906;SDS011;57190;47.918;8.112;2024-03-23T07:40:52;0.70;;;0.70;;
69906;SDS011;57190;47.918;8.112;2024-03-23T07:43:21;0.80;;;0.80;;
69906;SDS011;57190;47.918;8.112;2024-03-23T07:45:53;0.60;;;0.60;;
69906;SDS011;57190;47.918;8.112;2024-03-23T07:48:18;0.50;;;0.50;;
69906;SDS011;57190;47.918;8.112;2024-03-23T07:50:44;0.70;;;0.70;;
69906;SDS011;57190;47.918;8.112;2024-03-23T07:53:10;0.70;;;0.70;;
69906;SDS011;57190;47.918;8.112;2024-03-23T07:55:35;0.50;;;0.50;;
69906;SDS011;57190;47.918;8.112;2024-03-23T07:58:01;0.70;;;0.60;;
69906;SDS011;57190;47.918;8.112;2024-03-23T08:00:26;0.63;;;0.63;;
69906;SDS011;57190;47.918;8.112;2024-03-23T08:02:58;0.80;;;0.70;;
69906;SDS011;57190;47.918;8.112;2024-03-23T08:05:25;0.70;;;0.60;;
69906;SDS011;57190;47.918;8.112;2024-03-23T08:07:51;1.47;;;0.60;;
69906;SDS011;57190;47.918;8.112;2024-03-23T08:10:16;0.63;;;0.53;;
69906;SDS011;57190;47.918;8.112;2024-03-23T08:12:45;0.70;;;0.70;;
69906;SDS011;57190;47.918;8.112;2024-03-23T08:15:11;0.60;;;0.60;;
69906;SDS011;57190;47.918;8.112;2024-03-23T08:17:36;0.67;;;0.63;;
69906;SDS011;57190;47.918;8.112;2024-03-23T08:20:02;0.80;;;0.80;;
69906;SDS011;57190;47.918;8.112;2024-03-23T08:22:28;0.50;;;0.50;;
69906;SDS011;57190;47.918;8.112;2024-03-23T08:24:53;0.70;;;0.70;;
69906;SDS011;57190;47.918;8.112;2024-03-23T08:27:19;0.70;;;0.70;;
69906;SDS011;57190;47.918;8.112;2024-03-23T08:29:45;1.13;;;1.00;;
69906;SDS011;57190;47.918;8.112;2024-03-23T08:32:10;0.90;;;0.90;;
69906;SDS011;57190;47.918;8.112;2024-03-23T08:34:37;0.90;;;0.90;;
69906;SDS011;57190;47.918;8.112;2024-03-23T08:37:03;0.90;;;0.90;;
69906;SDS011;57190;47.918;8.112;2024-03-23T08:39:28;1.07;;;1.00;;
69906;SDS011;57190;47.918;8.112;2024-03-23T08:41:53;1.13;;;1.00;;
69906;SDS011;57190;47.918;8.112;2024-03-23T08:44:19;1.70;;;1.30;;
69906;SDS011;57190;47.918;8.112;2024-03-23T08:46:44;1.03;;;0.90;;
69906;SDS011;57190;47.918;8.112;2024-03-23T08:49:10;2.60;;;1.40;;
69906;SDS011;57190;47.918;8.112;2024-03-23T08:51:36;1.53;;;1.10;;
69906;SDS011;57190;47.918;8.112;2024-03-23T08:54:02;1.50;;;1.10;;
69906;SDS011;57190;47.918;8.112;2024-03-23T08:56:27;1.00;;;0.90;;
69906;SDS011;57190;47.918;8.112;2024-03-23T08:58:52;1.20;;;1.10;;
69906;SDS011;57190;47.918;8.112;2024-03-23T09:01:18;1.90;;;1.30;;
69906;SDS011;57190;47.918;8.112;2024-03-23T09:03:43;2.80;;;1.80;;
69906;SDS011;57190;47.918;8.112;2024-03-23T09:06:10;1.83;;;1.63;;
69906;SDS011;57190;47.918;8.112;2024-03-23T09:08:37;2.70;;;1.63;;
69906;SDS011;57190;47.918;8.112;2024-03-23T09:11:04;2.90;;;1.93;;
69906;SDS011;57190;47.918;8.112;2024-03-23T09:13:32;2.70;;;2.00;;
69906;SDS011;57190;47.918;8.112;2024-03-23T09:15:58;2.50;;;1.70;;
69906;SDS011;57190;47.918;8.112;2024-03-23T09:18:24;3.70;;;2.10;;
69906;SDS011;57190;47.918;8.112;2024-03-23T09:20:49;4.43;;;2.30;;
69906;SDS011;57190;47.918;8.112;2024-03-23T09:23:15;5.00;;;2.50;;
69906;SDS011;57190;47.918;8.112;2024-03-23T09:25:40;3.73;;;2.20;;
69906;SDS011;57190;47.918;8.112;2024-03-23T09:28:06;4.07;;;2.37;;
69906;SDS011;57190;47.918;8.112;2024-03-23T09:30:35;4.87;;;2.80;;
69906;SDS011;57190;47.918;8.112;2024-03-23T09:33:03;5.53;;;2.93;;
69906;SDS011;57190;47.918;8.112;2024-03-23T09:35:28;4.50;;;2.93;;
69906;SDS011;57190;47.918;8.112;2024-03-23T09:37:54;4.20;;;2.80;;
69906;SDS011;57190;47.918;8.112;2024-03-23T09:40:19;4.83;;;2.63;;
69906;SDS011;57190;47.918;8.112;2024-03-23T09:42:54;4.23;;;2.30;;
69906;SDS011;57190;47.918;8.112;2024-03-23T09:45:21;5.70;;;2.70;;
69906;SDS011;57190;47.918;8.112;2024-03-23T09:47:47;4.73;;;2.90;;
69906;SDS011;57190;47.918;8.112;2024-03-23T09:50:15;4.67;;;2.43;;
69906;SDS011;57190;47.918;8.112;2024-03-23T09:52:41;3.50;;;3.00;;
69906;SDS011;57190;47.918;8.112;2024-03-23T09:55:07;3.43;;;2.23;;
69906;SDS011;57190;47.918;8.112;2024-03-23T09:57:34;3.07;;;2.60;;
69906;SDS011;57190;47.918;8.112;2024-03-23T09:59:59;3.30;;;2.37;;
69906;SDS011;57190;47.918;8.112;2024-03-23T10:02:25;4.30;;;2.43;;
69906;SDS011;57190;47.918;8.112;2024-03-23T10:04:51;5.03;;;2.23;;
69906;SDS011;57190;47.918;8.112;2024-03-23T10:07:20;2.80;;;2.47;;
69906;SDS011;57190;47.918;8.112;2024-03-23T10:09:47;5.00;;;2.70;;
69906;SDS011;57190;47.918;8.112;2024-03-23T10:12:13;2.72;;;2.00;;
69906;SDS011;57190;47.918;8.112;2024-03-23T10:14:40;4.47;;;2.67;;
69906;SDS011;57190;47.918;8.112;2024-03-23T10:17:16;3.35;;;1.77;;
69906;SDS011;57190;47.918;8.112;2024-03-23T10:19:49;3.78;;;2.00;;
69906;SDS011;57190;47.918;8.112;2024-03-23T10:22:19;2.67;;;2.00;;
69906;SDS011;57190;47.918;8.112;2024-03-23T10:24:49;5.30;;;2.03;;
69906;SDS011;57190;47.918;8.112;2024-03-23T10:27:15;2.00;;;1.60;;
69906;SDS011;57190;47.918;8.112;2024-03-23T10:29:45;2.63;;;2.10;;
69906;SDS011;57190;47.918;8.112;2024-03-23T10:32:12;3.55;;;1.77;;
69906;SDS011;57190;47.918;8.112;2024-03-23T10:34:39;4.28;;;1.98;;
69906;SDS011;57190;47.918;8.112;2024-03-23T10:37:05;2.33;;;1.88;;
69906;SDS011;57190;47.918;8.112;2024-03-23T10:39:35;3.13;;;1.80;;
69906;SDS011;57190;47.918;8.112;2024-03-23T10:42:02;5.97;;;2.20;;
69906;SDS011;57190;47.918;8.112;2024-03-23T10:44:33;3.23;;;1.80;;
69906;SDS011;57190;47.918;8.112;2024-03-23T10:46:59;2.77;;;2.27;;
69906;SDS011;57190;47.918;8.112;2024-03-23T10:49:32;4.77;;;2.30;;
69906;SDS011;57190;47.918;8.112;2024-03-23T10:51:59;4.23;;;2.40;;
69906;SDS011;57190;47.918;8.112;2024-03-23T10:54:25;4.37;;;2.00;;
69906;SDS011;57190;47.918;8.112;2024-03-23T10:56:53;7.77;;;2.13;;
69906;SDS011;57190;47.918;8.112;2024-03-23T10:59:30;6.40;;;2.50;;
69906;SDS011;57190;47.918;8.112;2024-03-23T11:01:57;4.87;;;2.13;;
69906;SDS011;57190;47.918;8.112;2024-03-23T11:04:30;2.77;;;2.00;;
69906;SDS011;57190;47.918;8.112;2024-03-23T11:06:56;4.87;;;1.83;;
69906;SDS011;57190;47.918;8.112;2024-03-23T11:12:45;2.20;;;1.20;;
69906;SDS011;57190;47.918;8.112;2024-03-23T11:14:52;2.30;;;0.90;;
69906;SDS011;57190;47.918;8.112;2024-03-23T11:17:21;0.90;;;0.90;;
69906;SDS011;57190;47.918;8.112;2024-03-23T11:19:54;1.10;;;1.00;;
69906;SDS011;57190;47.918;8.112;2024-03-23T11:25:21;0.80;;;0.77;;
69906;SDS011;57190;47.918;8.112;2024-03-23T11:27:51;1.43;;;0.70;;
69906;SDS011;57190;47.918;8.112;2024-03-23T11:32:48;1.43;;;1.00;;
69906;SDS011;57190;47.918;8.112;2024-03-23T11:35:48;1.50;;;1.17;;
69906;SDS011;57190;47.918;8.112;2024-03-23T11:38:16;2.00;;;1.20;;
69906;SDS011;57190;47.918;8.112;2024-03-23T11:40:46;2.93;;;1.53;;
69906;SDS011;57190;47.918;8.112;2024-03-23T11:43:13;2.23;;;1.30;;
69906;SDS011;57190;47.918;8.112;2024-03-23T11:45:49;1.90;;;1.33;;
69906;SDS011;57190;47.918;8.112;2024-03-23T11:48:20;1.33;;;1.17;;
69906;SDS011;57190;47.918;8.112;2024-03-23T11:50:51;4.00;;;1.77;;
69906;SDS011;57190;47.918;8.112;2024-03-23T11:58:15;2.03;;;1.30;;
69906;SDS011;57190;47.918;8.112;2024-03-23T12:00:41;2.97;;;1.30;;
69906;SDS011;57190;47.918;8.112;2024-03-23T12:03:07;1.40;;;1.30;;
69906;SDS011;57190;47.918;8.112;2024-03-23T12:05:35;2.33;;;1.40;;
69906;SDS011;57190;47.918;8.112;2024-03-23T12:10:53;2.90;;;2.03;;
69906;SDS011;57190;47.918;8.112;2024-03-23T12:13:29;1.33;;;1.10;;
69906;SDS011;57190;47.918;8.112;2024-03-23T12:15:54;3.77;;;1.50;;
69906;SDS011;57190;47.918;8.112;2024-03-23T12:18:23;2.10;;;1.07;;
69906;SDS011;57190;47.918;8.112;2024-03-23T12:20:49;2.40;;;1.10;;
69906;SDS011;57190;47.918;8.112;2024-03-23T12:23:15;2.37;;;1.50;;
69906;SDS011;57190;47.918;8.112;2024-03-23T12:25:40;3.60;;;1.63;;
69906;SDS011;57190;47.918;8.112;2024-03-23T12:28:06;2.43;;;1.47;;
69906;SDS011;57190;47.918;8.112;2024-03-23T12:30:33;4.77;;;1.87;;
69906;SDS011;57190;47.918;8.112;2024-03-23T12:33:00;3.13;;;1.60;;
69906;SDS011;57190;47.918;8.112;2024-03-23T12:35:25;2.93;;;1.77;;
69906;SDS011;57190;47.918;8.112;2024-03-23T12:37:51;2.93;;;1.80;;
69906;SDS011;57190;47.918;8.112;2024-03-23T12:40:16;2.27;;;1.53;;
69906;SDS011;57190;47.918;8.112;2024-03-23T12:42:42;3.20;;;1.80;;
69906;SDS011;57190;47.918;8.112;2024-03-23T12:45:07;4.70;;;2.13;;
69906;SDS011;57190;47.918;8.112;2024-03-23T12:47:33;6.07;;;2.20;;
69906;SDS011;57190;47.918;8.112;2024-03-23T12:49:58;4.47;;;2.07;;
69906;SDS011;57190;47.918;8.112;2024-03-23T12:52:24;4.60;;;2.20;;
69906;SDS011;57190;47.918;8.112;2024-03-23T12:54:54;3.00;;;1.93;;
69906;SDS011;57190;47.918;8.112;2024-03-23T12:57:21;5.37;;;2.63;;
69906;SDS011;57190;47.918;8.112;2024-03-23T12:59:50;4.37;;;2.20;;
69906;SDS011;57190;47.918;8.112;2024-03-23T13:02:21;3.53;;;2.13;;
69906;SDS011;57190;47.918;8.112;2024-03-23T13:04:50;2.63;;;2.03;;
69906;SDS011;57190;47.918;8.112;2024-03-23T13:07:19;5.47;;;1.80;;
69906;SDS011;57190;47.918;8.112;2024-03-23T13:09:46;4.00;;;2.13;;
69906;SDS011;57190;47.918;8.112;2024-03-23T13:12:11;2.30;;;1.70;;
69906;SDS011;57190;47.918;8.112;2024-03-23T13:14:37;3.10;;;2.00;;
69906;SDS011;57190;47.918;8.112;2024-03-23T13:17:04;3.33;;;1.80;;
69906;SDS011;57190;47.918;8.112;2024-03-23T13:19:30;3.03;;;1.40;;
69906;SDS011;57190;47.918;8.112;2024-03-23T13:21:59;2.60;;;1.40;;
69906;SDS011;57190;47.918;8.112;2024-03-23T13:24:29;3.27;;;1.23;;
69906;SDS011;57190;47.918;8.112;2024-03-23T13:26:55;2.03;;;1.17;;
69906;SDS011;57190;47.918;8.112;2024-03-23T13:29:21;2.60;;;1.37;;
69906;SDS011;57190;47.918;8.112;2024-03-23T13:31:47;4.83;;;1.77;;
69906;SDS011;57190;47.918;8.112;2024-03-23T13:34:13;4.93;;;1.67;;
69906;SDS011;57190;47.918;8.112;2024-03-23T13:36:43;3.77;;;1.63;;
69906;SDS011;57190;47.918;8.112;2024-03-23T13:39:12;2.77;;;1.30;;
69906;SDS011;57190;47.918;8.112;2024-03-23T13:41:39;2.60;;;1.70;;
69906;SDS011;57190;47.918;8.112;2024-03-23T13:44:11;4.57;;;2.00;;
69906;SDS011;57190;47.918;8.112;2024-03-23T13:46:38;3.70;;;1.70;;
69906;SDS011;57190;47.918;8.112;2024-03-23T13:49:04;2.73;;;1.37;;
69906;SDS011;57190;47.918;8.112;2024-03-23T13:51:31;2.40;;;1.47;;
69906;SDS011;57190;47.918;8.112;2024-03-23T13:53:57;4.00;;;1.20;;
69906;SDS011;57190;47.918;8.112;2024-03-23T13:56:25;2.55;;;1.33;;
69906;SDS011;57190;47.918;8.112;2024-03-23T13:58:53;3.45;;;1.52;;
69906;SDS011;57190;47.918;8.112;2024-03-23T14:01:19;2.80;;;1.52;;
69906;SDS011;57190;47.918;8.112;2024-03-23T14:03:44;3.30;;;1.55;;
69906;SDS011;57190;47.918;8.112;2024-03-23T14:06:10;5.40;;;1.55;;
69906;SDS011;57190;47.918;8.112;2024-03-23T14:08:36;2.50;;;1.75;;
69906;SDS011;57190;47.918;8.112;2024-03-23T14:11:04;4.88;;;1.83;;
69906;SDS011;57190;47.918;8.112;2024-03-23T14:13:33;1.98;;;1.10;;
69906;SDS011;57190;47.918;8.112;2024-03-23T14:15:59;3.60;;;1.40;;
69906;SDS011;57190;47.918;8.112;2024-03-23T14:18:25;3.45;;;1.52;;
69906;SDS011;57190;47.918;8.112;2024-03-23T14:20:51;3.10;;;1.30;;
69906;SDS011;57190;47.918;8.112;2024-03-23T14:23:18;3.22;;;1.83;;
69906;SDS011;57190;47.918;8.112;2024-03-23T14:25:44;3.13;;;1.45;;
69906;SDS011;57190;47.918;8.112;2024-03-23T14:28:10;3.08;;;1.30;;
69906;SDS011;57190;47.918;8.112;2024-03-23T14:30:40;3.30;;;1.40;;
69906;SDS011;57190;47.918;8.112;2024-03-23T14:33:08;2.72;;;1.55;;
69906;SDS011;57190;47.918;8.112;2024-03-23T14:35:34;3.00;;;1.48;;
69906;SDS011;57190;47.918;8.112;2024-03-23T14:38:00;2.97;;;1.75;;
69906;SDS011;57190;47.918;8.112;2024-03-23T14:40:25;4.30;;;1.75;;
69906;SDS011;57190;47.918;8.112;2024-03-23T14:42:54;2.78;;;1.40;;
69906;SDS011;57190;47.918;8.112;2024-03-23T14:45:23;3.28;;;1.50;;
69906;SDS011;57190;47.918;8.112;2024-03-23T14:47:50;2.77;;;1.10;;
69906;SDS011;57190;47.918;8.112;2024-03-23T14:50:16;2.67;;;1.13;;
69906;SDS011;57190;47.918;8.112;2024-03-23T14:52:45;1.83;;;1.10;;
69906;SDS011;57190;47.918;8.112;2024-03-23T14:55:13;2.90;;;1.57;;
69906;SDS011;57190;47.918;8.112;2024-03-23T14:57:39;1.80;;;1.03;;
69906;SDS011;57190;47.918;8.112;2024-03-23T15:00:08;2.30;;;0.93;;
69906;SDS011;57190;47.918;8.112;2024-03-23T15:02:38;3.90;;;1.00;;
69906;SDS011;57190;47.918;8.112;2024-03-23T15:05:04;2.03;;;1.30;;
69906;SDS011;57190;47.918;8.112;2024-03-23T15:07:34;2.37;;;1.20;;
69906;SDS011;57190;47.918;8.112;2024-03-23T15:10:01;2.53;;;1.10;;
69906;SDS011;57190;47.918;8.112;2024-03-23T15:12:26;2.57;;;1.30;;
69906;SDS011;57190;47.918;8.112;2024-03-23T15:14:52;2.00;;;0.97;;
69906;SDS011;57190;47.918;8.112;2024-03-23T15:17:17;3.57;;;1.50;;
69906;SDS011;57190;47.918;8.112;2024-03-23T15:19:43;2.33;;;1.20;;
69906;SDS011;57190;47.918;8.112;2024-03-23T15:22:09;3.93;;;1.10;;
69906;SDS011;57190;47.918;8.112;2024-03-23T15:24:35;1.63;;;0.80;;
69906;SDS011;57190;47.918;8.112;2024-03-23T15:27:01;2.83;;;1.27;;
69906;SDS011;57190;47.918;8.112;2024-03-23T15:29:29;1.87;;;0.90;;
69906;SDS011;57190;47.918;8.112;2024-03-23T15:31:56;2.57;;;1.10;;
69906;SDS011;57190;47.918;8.112;2024-03-23T15:34:21;2.87;;;1.00;;
69906;SDS011;57190;47.918;8.112;2024-03-23T15:36:50;1.47;;;1.00;;
69906;SDS011;57190;47.918;8.112;2024-03-23T15:39:18;3.63;;;1.13;;
69906;SDS011;57190;47.918;8.112;2024-03-23T15:41:45;3.57;;;1.43;;
69906;SDS011;57190;47.918;8.112;2024-03-23T15:44:10;2.73;;;0.97;;
69906;SDS011;57190;47.918;8.112;2024-03-23T15:46:36;1.90;;;0.90;;
69906;SDS011;57190;47.918;8.112;2024-03-23T15:49:02;2.53;;;1.13;;
69906;SDS011;57190;47.918;8.112;2024-03-23T15:51:27;2.43;;;0.90;;
69906;SDS011;57190;47.918;8.112;2024-03-23T15:54:00;1.70;;;0.80;;
69906;SDS011;57190;47.918;8.112;2024-03-23T15:56:26;2.33;;;1.27;;